sensor_id;sensor_type;location;lat;lon;timestamp;P1;durP1;ratioP1;P2;durP2;ratioP2
35506;SDS011;36461;52.018;21.036;2022-09-09T00:00:47;10.00;;;5.22;;
35506;SDS011;36461;52.018;21.036;2022-09-09T00:04:03;12.43;;;5.10;;
35506;SDS011;36461;52.018;21.036;2022-09-09T00:09:49;8.15;;;4.90;;
35506;SDS011;36461;52.018;21.036;2022-09-09T00:18:31;8.48;;;4.95;;
35506;SDS011;36461;52.018;21.036;2022-09-09T00:21:26;8.73;;;5.08;;
35506;SDS011;36461;52.018;21.036;2022-09-09T00:23:58;8.85;;;4.87;;
35506;SDS011;36461;52.018;21.036;2022-09-09T00:29:27;8.28;;;4.78;;
35506;SDS011;36461;52.018;21.036;2022-09-09T00:31:57;8.03;;;4.97;;
35506;SDS011;36461;52.018;21.036;2022-09-09T00:34:29;8.73;;;4.72;;
35506;SDS011;36461;52.018;21.036;2022-09-09T00:36:55;10.58;;;6.35;;
35506;SDS011;36461;52.018;21.036;2022-09-09T00:39:36;7.75;;;4.62;;
35506;SDS011;36461;52.018;21.036;2022-09-09T00:56:08;9.23;;;5.33;;
35506;SDS011;36461;52.018;21.036;2022-09-09T00:58:52;9.60;;;5.50;;
35506;SDS011;36461;52.018;21.036;2022-09-09T01:01:35;10.10;;;5.90;;
35506;SDS011;36461;52.018;21.036;2022-09-09T01:04:01;8.85;;;5.42;;
35506;SDS011;36461;52.018;21.036;2022-09-09T01:06:35;8.43;;;5.75;;
35506;SDS011;36461;52.018;21.036;2022-09-09T01:09:24;9.58;;;5.72;;
35506;SDS011;36461;52.018;21.036;2022-09-09T01:12:16;9.65;;;5.42;;
35506;SDS011;36461;52.018;21.036;2022-09-09T01:15:24;7.65;;;5.80;;
35506;SDS011;36461;52.018;21.036;2022-09-09T01:18:08;10.20;;;6.33;;
35506;SDS011;36461;52.018;21.036;2022-09-09T01:24:05;10.15;;;6.47;;
35506;SDS011;36461;52.018;21.036;2022-09-09T01:26:56;9.28;;;6.03;;
35506;SDS011;36461;52.018;21.036;2022-09-09T01:29:29;11.00;;;6.43;;
35506;SDS011;36461;52.018;21.036;2022-09-09T01:31:59;8.33;;;5.83;;
35506;SDS011;36461;52.018;21.036;2022-09-09T01:34:35;8.70;;;5.55;;
35506;SDS011;36461;52.018;21.036;2022-09-09T01:37:02;8.63;;;6.05;;
35506;SDS011;36461;52.018;21.036;2022-09-09T01:39:36;10.70;;;6.20;;
35506;SDS011;36461;52.018;21.036;2022-09-09T01:42:09;12.88;;;6.25;;
35506;SDS011;36461;52.018;21.036;2022-09-09T01:44:40;11.55;;;6.37;;
35506;SDS011;36461;52.018;21.036;2022-09-09T01:47:07;9.50;;;6.33;;
35506;SDS011;36461;52.018;21.036;2022-09-09T01:49:37;9.73;;;6.37;;
35506;SDS011;36461;52.018;21.036;2022-09-09T01:52:06;11.88;;;6.12;;
35506;SDS011;36461;52.018;21.036;2022-09-09T01:54:36;12.53;;;6.65;;
35506;SDS011;36461;52.018;21.036;2022-09-09T02:08:41;12.35;;;6.83;;
35506;SDS011;36461;52.018;21.036;2022-09-09T02:11:13;10.80;;;6.75;;
35506;SDS011;36461;52.018;21.036;2022-09-09T02:13:47;11.18;;;6.62;;
35506;SDS011;36461;52.018;21.036;2022-09-09T02:21:36;14.47;;;9.15;;
35506;SDS011;36461;52.018;21.036;2022-09-09T02:24:04;11.33;;;7.35;;
35506;SDS011;36461;52.018;21.036;2022-09-09T02:26:38;10.78;;;7.33;;
35506;SDS011;36461;52.018;21.036;2022-09-09T02:29:08;12.43;;;6.30;;
35506;SDS011;36461;52.018;21.036;2022-09-09T02:31:42;10.85;;;7.10;;
35506;SDS011;36461;52.018;21.036;2022-09-09T02:34:14;12.20;;;7.22;;
35506;SDS011;36461;52.018;21.036;2022-09-09T02:36:44;9.10;;;6.83;;
35506;SDS011;36461;52.018;21.036;2022-09-09T02:39:14;11.30;;;6.97;;
35506;SDS011;36461;52.018;21.036;2022-09-09T02:41:41;10.72;;;7.12;;
35506;SDS011;36461;52.018;21.036;2022-09-09T02:44:13;9.45;;;6.83;;
35506;SDS011;36461;52.018;21.036;2022-09-09T02:55:45;11.50;;;7.22;;
35506;SDS011;36461;52.018;21.036;2022-09-09T03:00:48;9.80;;;6.87;;
35506;SDS011;36461;52.018;21.036;2022-09-09T03:03:17;8.68;;;6.70;;
35506;SDS011;36461;52.018;21.036;2022-09-09T03:05:46;9.03;;;6.75;;
35506;SDS011;36461;52.018;21.036;2022-09-09T03:08:13;9.55;;;6.53;;
35506;SDS011;36461;52.018;21.036;2022-09-09T03:10:41;11.93;;;6.85;;
35506;SDS011;36461;52.018;21.036;2022-09-09T03:13:09;10.43;;;6.50;;
35506;SDS011;36461;52.018;21.036;2022-09-09T03:15:38;10.25;;;6.60;;
35506;SDS011;36461;52.018;21.036;2022-09-09T03:18:05;11.78;;;7.00;;
35506;SDS011;36461;52.018;21.036;2022-09-09T03:20:32;8.93;;;6.87;;
35506;SDS011;36461;52.018;21.036;2022-09-09T03:22:59;10.50;;;6.37;;
35506;SDS011;36461;52.018;21.036;2022-09-09T03:25:28;8.95;;;6.33;;
35506;SDS011;36461;52.018;21.036;2022-09-09T03:27:56;8.15;;;5.95;;
35506;SDS011;36461;52.018;21.036;2022-09-09T03:30:23;8.03;;;6.00;;
35506;SDS011;36461;52.018;21.036;2022-09-09T03:32:53;9.95;;;6.50;;
35506;SDS011;36461;52.018;21.036;2022-09-09T03:35:21;9.73;;;6.12;;
35506;SDS011;36461;52.018;21.036;2022-09-09T03:37:48;10.08;;;6.35;;
35506;SDS011;36461;52.018;21.036;2022-09-09T03:40:15;9.75;;;5.92;;
35506;SDS011;36461;52.018;21.036;2022-09-09T03:42:43;8.10;;;5.65;;
35506;SDS011;36461;52.018;21.036;2022-09-09T03:45:10;7.35;;;5.47;;
35506;SDS011;36461;52.018;21.036;2022-09-09T03:47:38;9.48;;;6.35;;
35506;SDS011;36461;52.018;21.036;2022-09-09T03:50:06;8.13;;;5.42;;
35506;SDS011;36461;52.018;21.036;2022-09-09T03:52:38;9.13;;;6.12;;
35506;SDS011;36461;52.018;21.036;2022-09-09T03:55:08;8.63;;;5.58;;
35506;SDS011;36461;52.018;21.036;2022-09-09T03:57:36;8.73;;;5.35;;
35506;SDS011;36461;52.018;21.036;2022-09-09T04:00:05;7.60;;;5.70;;
35506;SDS011;36461;52.018;21.036;2022-09-09T04:02:43;7.20;;;5.12;;
35506;SDS011;36461;52.018;21.036;2022-09-09T04:05:13;7.50;;;5.42;;
35506;SDS011;36461;52.018;21.036;2022-09-09T04:07:41;7.33;;;5.40;;
35506;SDS011;36461;52.018;21.036;2022-09-09T04:10:08;7.22;;;4.90;;
35506;SDS011;36461;52.018;21.036;2022-09-09T04:12:37;6.72;;;5.00;;
35506;SDS011;36461;52.018;21.036;2022-09-09T04:15:04;8.30;;;5.35;;
35506;SDS011;36461;52.018;21.036;2022-09-09T04:17:32;6.00;;;4.65;;
35506;SDS011;36461;52.018;21.036;2022-09-09T04:20:00;6.03;;;4.78;;
35506;SDS011;36461;52.018;21.036;2022-09-09T04:22:27;6.62;;;4.85;;
35506;SDS011;36461;52.018;21.036;2022-09-09T04:27:21;5.90;;;4.72;;
35506;SDS011;36461;52.018;21.036;2022-09-09T04:29:47;6.55;;;4.60;;
35506;SDS011;36461;52.018;21.036;2022-09-09T04:32:14;7.67;;;4.80;;
35506;SDS011;36461;52.018;21.036;2022-09-09T04:34:41;6.45;;;4.97;;
35506;SDS011;36461;52.018;21.036;2022-09-09T04:37:08;8.70;;;5.42;;
35506;SDS011;36461;52.018;21.036;2022-09-09T04:39:37;6.22;;;4.58;;
35506;SDS011;36461;52.018;21.036;2022-09-09T04:42:05;6.75;;;5.05;;
35506;SDS011;36461;52.018;21.036;2022-09-09T04:44:33;5.03;;;4.33;;
35506;SDS011;36461;52.018;21.036;2022-09-09T04:49:26;6.15;;;4.47;;
35506;SDS011;36461;52.018;21.036;2022-09-09T04:51:54;6.45;;;4.80;;
35506;SDS011;36461;52.018;21.036;2022-09-09T04:54:22;6.28;;;4.62;;
35506;SDS011;36461;52.018;21.036;2022-09-09T04:56:50;6.05;;;4.70;;
35506;SDS011;36461;52.018;21.036;2022-09-09T04:59:18;7.10;;;4.75;;
35506;SDS011;36461;52.018;21.036;2022-09-09T05:01:46;7.42;;;4.97;;
35506;SDS011;36461;52.018;21.036;2022-09-09T05:04:14;7.03;;;4.95;;
35506;SDS011;36461;52.018;21.036;2022-09-09T05:06:42;8.15;;;5.03;;
35506;SDS011;36461;52.018;21.036;2022-09-09T05:09:10;6.15;;;4.70;;
35506;SDS011;36461;52.018;21.036;2022-09-09T05:11:37;6.40;;;4.40;;
35506;SDS011;36461;52.018;21.036;2022-09-09T05:14:18;6.22;;;5.20;;
35506;SDS011;36461;52.018;21.036;2022-09-09T05:16:45;8.60;;;5.37;;
35506;SDS011;36461;52.018;21.036;2022-09-09T05:19:13;6.60;;;5.42;;
35506;SDS011;36461;52.018;21.036;2022-09-09T05:21:44;6.65;;;5.03;;
35506;SDS011;36461;52.018;21.036;2022-09-09T05:24:11;7.55;;;5.00;;
35506;SDS011;36461;52.018;21.036;2022-09-09T05:26:39;7.37;;;5.60;;
35506;SDS011;36461;52.018;21.036;2022-09-09T05:29:06;7.92;;;5.17;;
35506;SDS011;36461;52.018;21.036;2022-09-09T05:31:34;6.62;;;4.92;;
35506;SDS011;36461;52.018;21.036;2022-09-09T05:34:03;7.37;;;5.30;;
35506;SDS011;36461;52.018;21.036;2022-09-09T05:36:29;7.55;;;5.22;;
35506;SDS011;36461;52.018;21.036;2022-09-09T05:38:56;7.87;;;6.03;;
35506;SDS011;36461;52.018;21.036;2022-09-09T05:41:24;7.45;;;5.78;;
35506;SDS011;36461;52.018;21.036;2022-09-09T05:43:53;6.28;;;5.22;;
35506;SDS011;36461;52.018;21.036;2022-09-09T05:46:21;7.08;;;5.78;;
35506;SDS011;36461;52.018;21.036;2022-09-09T05:48:53;7.87;;;5.55;;
35506;SDS011;36461;52.018;21.036;2022-09-09T05:51:23;7.37;;;5.58;;
35506;SDS011;36461;52.018;21.036;2022-09-09T05:53:55;7.05;;;5.15;;
35506;SDS011;36461;52.018;21.036;2022-09-09T05:56:25;7.12;;;5.83;;
35506;SDS011;36461;52.018;21.036;2022-09-09T05:58:55;6.95;;;5.20;;
35506;SDS011;36461;52.018;21.036;2022-09-09T06:01:24;7.25;;;5.42;;
35506;SDS011;36461;52.018;21.036;2022-09-09T06:03:56;8.65;;;6.25;;
35506;SDS011;36461;52.018;21.036;2022-09-09T06:06:25;8.55;;;6.22;;
35506;SDS011;36461;52.018;21.036;2022-09-09T06:11:30;7.65;;;5.50;;
35506;SDS011;36461;52.018;21.036;2022-09-09T06:13:58;8.85;;;6.30;;
35506;SDS011;36461;52.018;21.036;2022-09-09T06:16:26;8.25;;;6.08;;
35506;SDS011;36461;52.018;21.036;2022-09-09T06:18:56;8.83;;;6.45;;
35506;SDS011;36461;52.018;21.036;2022-09-09T06:21:25;9.30;;;6.25;;
35506;SDS011;36461;52.018;21.036;2022-09-09T06:23:58;8.95;;;6.60;;
35506;SDS011;36461;52.018;21.036;2022-09-09T06:26:27;7.50;;;5.83;;
35506;SDS011;36461;52.018;21.036;2022-09-09T06:28:59;8.40;;;6.15;;
35506;SDS011;36461;52.018;21.036;2022-09-09T06:31:30;9.03;;;6.47;;
35506;SDS011;36461;52.018;21.036;2022-09-09T06:34:02;8.85;;;6.45;;
35506;SDS011;36461;52.018;21.036;2022-09-09T06:36:36;9.90;;;7.20;;
35506;SDS011;36461;52.018;21.036;2022-09-09T06:39:05;10.18;;;6.60;;
35506;SDS011;36461;52.018;21.036;2022-09-09T06:41:35;9.20;;;6.50;;
35506;SDS011;36461;52.018;21.036;2022-09-09T06:44:02;8.60;;;6.33;;
35506;SDS011;36461;52.018;21.036;2022-09-09T06:46:37;8.35;;;6.42;;
35506;SDS011;36461;52.018;21.036;2022-09-09T06:49:05;8.50;;;6.87;;
35506;SDS011;36461;52.018;21.036;2022-09-09T06:51:35;11.05;;;7.15;;
35506;SDS011;36461;52.018;21.036;2022-09-09T06:54:10;8.98;;;6.58;;
35506;SDS011;36461;52.018;21.036;2022-09-09T06:56:39;10.53;;;7.65;;
35506;SDS011;36461;52.018;21.036;2022-09-09T06:59:10;8.03;;;6.37;;
35506;SDS011;36461;52.018;21.036;2022-09-09T07:01:39;9.08;;;7.10;;
35506;SDS011;36461;52.018;21.036;2022-09-09T07:04:11;11.57;;;7.65;;
35506;SDS011;36461;52.018;21.036;2022-09-09T07:06:42;11.70;;;8.40;;
35506;SDS011;36461;52.018;21.036;2022-09-09T07:09:14;9.53;;;7.50;;
35506;SDS011;36461;52.018;21.036;2022-09-09T07:11:45;12.30;;;8.13;;
35506;SDS011;36461;52.018;21.036;2022-09-09T07:14:15;11.18;;;8.10;;
35506;SDS011;36461;52.018;21.036;2022-09-09T07:16:44;11.15;;;8.30;;
35506;SDS011;36461;52.018;21.036;2022-09-09T07:19:13;9.90;;;8.10;;
35506;SDS011;36461;52.018;21.036;2022-09-09T07:21:42;9.80;;;7.85;;
35506;SDS011;36461;52.018;21.036;2022-09-09T07:24:10;10.38;;;8.08;;
35506;SDS011;36461;52.018;21.036;2022-09-09T07:26:39;11.33;;;8.60;;
35506;SDS011;36461;52.018;21.036;2022-09-09T07:29:07;10.53;;;8.40;;
35506;SDS011;36461;52.018;21.036;2022-09-09T07:31:35;10.53;;;8.45;;
35506;SDS011;36461;52.018;21.036;2022-09-09T07:34:07;9.70;;;7.65;;
35506;SDS011;36461;52.018;21.036;2022-09-09T07:36:36;12.13;;;8.43;;
35506;SDS011;36461;52.018;21.036;2022-09-09T07:39:07;10.82;;;8.48;;
35506;SDS011;36461;52.018;21.036;2022-09-09T07:41:42;12.05;;;8.28;;
35506;SDS011;36461;52.018;21.036;2022-09-09T07:44:13;11.50;;;8.18;;
35506;SDS011;36461;52.018;21.036;2022-09-09T07:46:43;11.10;;;8.18;;
35506;SDS011;36461;52.018;21.036;2022-09-09T07:49:13;11.05;;;8.60;;
35506;SDS011;36461;52.018;21.036;2022-09-09T07:51:42;10.72;;;8.18;;
35506;SDS011;36461;52.018;21.036;2022-09-09T07:54:13;10.60;;;9.30;;
35506;SDS011;36461;52.018;21.036;2022-09-09T07:56:43;10.85;;;8.75;;
35506;SDS011;36461;52.018;21.036;2022-09-09T07:59:11;10.03;;;7.78;;
35506;SDS011;36461;52.018;21.036;2022-09-09T08:01:40;10.68;;;8.80;;
35506;SDS011;36461;52.018;21.036;2022-09-09T08:04:13;11.97;;;9.10;;
35506;SDS011;36461;52.018;21.036;2022-09-09T08:06:44;10.15;;;8.15;;
35506;SDS011;36461;52.018;21.036;2022-09-09T08:09:15;12.20;;;9.80;;
35506;SDS011;36461;52.018;21.036;2022-09-09T08:11:42;11.10;;;8.63;;
35506;SDS011;36461;52.018;21.036;2022-09-09T08:14:10;12.03;;;9.78;;
35506;SDS011;36461;52.018;21.036;2022-09-09T08:16:39;13.30;;;9.83;;
35506;SDS011;36461;52.018;21.036;2022-09-09T08:19:10;13.65;;;10.80;;
35506;SDS011;36461;52.018;21.036;2022-09-09T08:21:38;13.53;;;10.28;;
35506;SDS011;36461;52.018;21.036;2022-09-09T08:24:07;14.45;;;10.82;;
35506;SDS011;36461;52.018;21.036;2022-09-09T08:26:37;13.90;;;11.03;;
35506;SDS011;36461;52.018;21.036;2022-09-09T08:29:11;15.80;;;11.97;;
35506;SDS011;36461;52.018;21.036;2022-09-09T08:31:47;14.58;;;11.83;;
35506;SDS011;36461;52.018;21.036;2022-09-09T08:34:15;14.05;;;10.82;;
35506;SDS011;36461;52.018;21.036;2022-09-09T08:36:44;16.32;;;11.93;;
35506;SDS011;36461;52.018;21.036;2022-09-09T08:39:13;15.83;;;12.25;;
35506;SDS011;36461;52.018;21.036;2022-09-09T08:47:25;17.40;;;12.88;;
35506;SDS011;36461;52.018;21.036;2022-09-09T08:50:36;16.65;;;12.70;;
35506;SDS011;36461;52.018;21.036;2022-09-09T08:55:53;16.70;;;12.35;;
35506;SDS011;36461;52.018;21.036;2022-09-09T08:58:31;17.17;;;13.03;;
35506;SDS011;36461;52.018;21.036;2022-09-09T09:10:08;18.48;;;13.62;;
35506;SDS011;36461;52.018;21.036;2022-09-09T09:13:01;21.15;;;14.98;;
35506;SDS011;36461;52.018;21.036;2022-09-09T09:15:36;20.57;;;14.28;;
35506;SDS011;36461;52.018;21.036;2022-09-09T09:18:04;18.35;;;14.35;;
35506;SDS011;36461;52.018;21.036;2022-09-09T09:20:44;18.67;;;14.35;;
35506;SDS011;36461;52.018;21.036;2022-09-09T09:23:13;20.32;;;14.53;;
35506;SDS011;36461;52.018;21.036;2022-09-09T09:25:52;18.77;;;14.00;;
35506;SDS011;36461;52.018;21.036;2022-09-09T09:28:24;19.80;;;14.28;;
35506;SDS011;36461;52.018;21.036;2022-09-09T09:31:10;20.20;;;14.55;;
35506;SDS011;36461;52.018;21.036;2022-09-09T09:36:22;20.77;;;14.68;;
35506;SDS011;36461;52.018;21.036;2022-09-09T09:38:56;20.32;;;13.80;;
35506;SDS011;36461;52.018;21.036;2022-09-09T09:41:30;19.95;;;14.15;;
35506;SDS011;36461;52.018;21.036;2022-09-09T09:44:05;18.37;;;13.72;;
35506;SDS011;36461;52.018;21.036;2022-09-09T09:46:53;19.15;;;14.73;;
35506;SDS011;36461;52.018;21.036;2022-09-09T09:49:58;21.62;;;15.72;;
35506;SDS011;36461;52.018;21.036;2022-09-09T09:52:30;19.73;;;15.03;;
35506;SDS011;36461;52.018;21.036;2022-09-09T09:55:02;21.30;;;15.83;;
35506;SDS011;36461;52.018;21.036;2022-09-09T09:57:33;21.48;;;15.58;;
35506;SDS011;36461;52.018;21.036;2022-09-09T10:02:45;23.83;;;16.75;;
35506;SDS011;36461;52.018;21.036;2022-09-09T10:05:16;22.45;;;16.82;;
35506;SDS011;36461;52.018;21.036;2022-09-09T10:08:01;22.85;;;16.70;;
35506;SDS011;36461;52.018;21.036;2022-09-09T10:16:45;21.45;;;17.67;;
35506;SDS011;36461;52.018;21.036;2022-09-09T10:19:35;23.55;;;17.90;;
35506;SDS011;36461;52.018;21.036;2022-09-09T10:30:12;25.05;;;17.85;;
35506;SDS011;36461;52.018;21.036;2022-09-09T10:33:12;22.82;;;18.00;;
35506;SDS011;36461;52.018;21.036;2022-09-09T10:38:42;26.52;;;19.12;;
35506;SDS011;36461;52.018;21.036;2022-09-09T10:47:40;25.72;;;18.73;;
35506;SDS011;36461;52.018;21.036;2022-09-09T10:53:07;28.75;;;20.43;;
35506;SDS011;36461;52.018;21.036;2022-09-09T10:55:56;27.60;;;20.55;;
35506;SDS011;36461;52.018;21.036;2022-09-09T10:58:31;29.40;;;20.88;;
35506;SDS011;36461;52.018;21.036;2022-09-09T11:01:10;30.60;;;21.45;;
35506;SDS011;36461;52.018;21.036;2022-09-09T11:03:43;27.27;;;19.37;;
35506;SDS011;36461;52.018;21.036;2022-09-09T11:06:17;27.30;;;19.92;;
35506;SDS011;36461;52.018;21.036;2022-09-09T11:08:46;27.17;;;20.60;;
35506;SDS011;36461;52.018;21.036;2022-09-09T11:11:17;28.15;;;20.68;;
35506;SDS011;36461;52.018;21.036;2022-09-09T11:14:13;25.37;;;19.77;;
35506;SDS011;36461;52.018;21.036;2022-09-09T11:19:31;29.42;;;21.50;;
35506;SDS011;36461;52.018;21.036;2022-09-09T11:22:08;31.07;;;21.37;;
35506;SDS011;36461;52.018;21.036;2022-09-09T11:25:05;27.37;;;20.25;;
35506;SDS011;36461;52.018;21.036;2022-09-09T11:28:03;29.12;;;20.35;;
35506;SDS011;36461;52.018;21.036;2022-09-09T11:37:12;24.95;;;19.15;;
35506;SDS011;36461;52.018;21.036;2022-09-09T11:42:24;31.65;;;21.25;;
35506;SDS011;36461;52.018;21.036;2022-09-09T11:44:51;28.07;;;20.82;;
35506;SDS011;36461;52.018;21.036;2022-09-09T11:47:22;30.80;;;20.97;;
35506;SDS011;36461;52.018;21.036;2022-09-09T11:50:10;30.00;;;21.12;;
35506;SDS011;36461;52.018;21.036;2022-09-09T11:52:49;30.82;;;21.57;;
35506;SDS011;36461;52.018;21.036;2022-09-09T11:58:13;28.47;;;20.92;;
35506;SDS011;36461;52.018;21.036;2022-09-09T12:00:39;29.82;;;21.85;;
35506;SDS011;36461;52.018;21.036;2022-09-09T12:09:05;28.27;;;20.45;;
35506;SDS011;36461;52.018;21.036;2022-09-09T12:11:45;28.30;;;21.02;;
35506;SDS011;36461;52.018;21.036;2022-09-09T12:14:35;29.52;;;20.95;;
35506;SDS011;36461;52.018;21.036;2022-09-09T12:16:50;27.75;;;20.52;;
35506;SDS011;36461;52.018;21.036;2022-09-09T12:19:21;31.48;;;21.12;;
35506;SDS011;36461;52.018;21.036;2022-09-09T12:21:54;29.18;;;20.27;;
35506;SDS011;36461;52.018;21.036;2022-09-09T12:24:37;28.95;;;22.30;;
35506;SDS011;36461;52.018;21.036;2022-09-09T12:27:20;30.90;;;21.20;;
35506;SDS011;36461;52.018;21.036;2022-09-09T12:29:57;32.67;;;21.33;;
35506;SDS011;36461;52.018;21.036;2022-09-09T12:32:30;32.45;;;22.70;;
35506;SDS011;36461;52.018;21.036;2022-09-09T12:35:00;34.45;;;22.85;;
35506;SDS011;36461;52.018;21.036;2022-09-09T12:37:37;35.90;;;22.70;;
35506;SDS011;36461;52.018;21.036;2022-09-09T12:40:31;35.80;;;21.90;;
35506;SDS011;36461;52.018;21.036;2022-09-09T12:43:01;35.95;;;22.80;;
35506;SDS011;36461;52.018;21.036;2022-09-09T12:45:47;31.27;;;21.05;;
35506;SDS011;36461;52.018;21.036;2022-09-09T12:48:18;31.75;;;21.30;;
35506;SDS011;36461;52.018;21.036;2022-09-09T12:50:48;31.40;;;21.10;;
35506;SDS011;36461;52.018;21.036;2022-09-09T12:56:01;32.35;;;21.50;;
35506;SDS011;36461;52.018;21.036;2022-09-09T12:58:32;32.17;;;21.00;;
35506;SDS011;36461;52.018;21.036;2022-09-09T13:01:00;29.95;;;19.98;;
35506;SDS011;36461;52.018;21.036;2022-09-09T13:03:42;28.35;;;20.02;;
35506;SDS011;36461;52.018;21.036;2022-09-09T13:06:12;28.52;;;19.10;;
35506;SDS011;36461;52.018;21.036;2022-09-09T13:08:49;28.07;;;19.25;;
35506;SDS011;36461;52.018;21.036;2022-09-09T13:11:29;28.47;;;20.17;;
35506;SDS011;36461;52.018;21.036;2022-09-09T13:14:00;28.02;;;19.82;;
35506;SDS011;36461;52.018;21.036;2022-09-09T13:16:32;28.32;;;19.55;;
35506;SDS011;36461;52.018;21.036;2022-09-09T13:19:06;26.37;;;18.82;;
35506;SDS011;36461;52.018;21.036;2022-09-09T13:21:36;28.42;;;18.87;;
35506;SDS011;36461;52.018;21.036;2022-09-09T13:24:05;23.65;;;17.40;;
35506;SDS011;36461;52.018;21.036;2022-09-09T13:26:58;24.57;;;18.00;;
35506;SDS011;36461;52.018;21.036;2022-09-09T13:29:29;28.38;;;18.62;;
35506;SDS011;36461;52.018;21.036;2022-09-09T13:32:15;24.92;;;18.05;;
35506;SDS011;36461;52.018;21.036;2022-09-09T13:34:54;24.45;;;18.30;;
35506;SDS011;36461;52.018;21.036;2022-09-09T13:37:37;27.55;;;18.85;;
35506;SDS011;36461;52.018;21.036;2022-09-09T13:40:12;24.40;;;16.90;;
35506;SDS011;36461;52.018;21.036;2022-09-09T13:42:47;26.68;;;17.87;;
35506;SDS011;36461;52.018;21.036;2022-09-09T13:45:21;25.15;;;17.45;;
35506;SDS011;36461;52.018;21.036;2022-09-09T13:47:53;24.95;;;18.23;;
35506;SDS011;36461;52.018;21.036;2022-09-09T13:50:22;24.47;;;18.02;;
35506;SDS011;36461;52.018;21.036;2022-09-09T13:52:55;25.25;;;17.42;;
35506;SDS011;36461;52.018;21.036;2022-09-09T13:55:25;23.73;;;17.57;;
35506;SDS011;36461;52.018;21.036;2022-09-09T13:57:58;22.75;;;16.25;;
35506;SDS011;36461;52.018;21.036;2022-09-09T14:00:31;26.02;;;17.57;;
35506;SDS011;36461;52.018;21.036;2022-09-09T14:03:00;23.52;;;16.17;;
35506;SDS011;36461;52.018;21.036;2022-09-09T14:05:31;23.40;;;17.27;;
35506;SDS011;36461;52.018;21.036;2022-09-09T14:08:00;23.83;;;15.98;;
35506;SDS011;36461;52.018;21.036;2022-09-09T14:10:32;24.67;;;16.52;;
35506;SDS011;36461;52.018;21.036;2022-09-09T14:13:01;24.27;;;16.23;;
35506;SDS011;36461;52.018;21.036;2022-09-09T14:15:29;25.68;;;16.37;;
35506;SDS011;36461;52.018;21.036;2022-09-09T14:17:56;26.57;;;18.30;;
35506;SDS011;36461;52.018;21.036;2022-09-09T14:20:24;25.00;;;15.88;;
35506;SDS011;36461;52.018;21.036;2022-09-09T14:22:51;25.57;;;17.37;;
35506;SDS011;36461;52.018;21.036;2022-09-09T14:25:19;26.12;;;16.57;;
35506;SDS011;36461;52.018;21.036;2022-09-09T14:27:46;24.72;;;16.42;;
35506;SDS011;36461;52.018;21.036;2022-09-09T14:30:13;25.17;;;16.67;;
35506;SDS011;36461;52.018;21.036;2022-09-09T14:32:40;28.05;;;18.02;;
35506;SDS011;36461;52.018;21.036;2022-09-09T14:35:07;24.92;;;17.00;;
35506;SDS011;36461;52.018;21.036;2022-09-09T14:37:34;26.45;;;17.67;;
35506;SDS011;36461;52.018;21.036;2022-09-09T14:40:01;24.90;;;17.62;;
35506;SDS011;36461;52.018;21.036;2022-09-09T14:42:28;28.27;;;17.75;;
35506;SDS011;36461;52.018;21.036;2022-09-09T14:44:56;26.37;;;18.42;;
35506;SDS011;36461;52.018;21.036;2022-09-09T14:47:23;26.60;;;18.12;;
35506;SDS011;36461;52.018;21.036;2022-09-09T14:49:50;27.58;;;18.42;;
35506;SDS011;36461;52.018;21.036;2022-09-09T14:52:17;30.68;;;19.57;;
35506;SDS011;36461;52.018;21.036;2022-09-09T14:54:45;30.20;;;19.00;;
35506;SDS011;36461;52.018;21.036;2022-09-09T14:57:12;29.00;;;18.57;;
35506;SDS011;36461;52.018;21.036;2022-09-09T15:02:04;28.15;;;17.65;;
35506;SDS011;36461;52.018;21.036;2022-09-09T15:04:31;30.30;;;19.02;;
35506;SDS011;36461;52.018;21.036;2022-09-09T15:06:59;29.72;;;18.98;;
35506;SDS011;36461;52.018;21.036;2022-09-09T15:11:52;26.82;;;17.70;;
35506;SDS011;36461;52.018;21.036;2022-09-09T15:14:19;29.67;;;18.92;;
35506;SDS011;36461;52.018;21.036;2022-09-09T15:16:46;31.57;;;19.42;;
35506;SDS011;36461;52.018;21.036;2022-09-09T15:19:13;28.00;;;19.62;;
35506;SDS011;36461;52.018;21.036;2022-09-09T15:21:39;32.20;;;19.77;;
35506;SDS011;36461;52.018;21.036;2022-09-09T15:24:07;31.93;;;20.32;;
35506;SDS011;36461;52.018;21.036;2022-09-09T15:29:03;29.57;;;19.75;;
35506;SDS011;36461;52.018;21.036;2022-09-09T15:31:31;32.50;;;20.97;;
35506;SDS011;36461;52.018;21.036;2022-09-09T15:34:01;31.37;;;20.37;;
35506;SDS011;36461;52.018;21.036;2022-09-09T15:39:11;30.10;;;19.90;;
35506;SDS011;36461;52.018;21.036;2022-09-09T15:41:38;30.48;;;20.68;;
35506;SDS011;36461;52.018;21.036;2022-09-09T15:44:06;33.63;;;20.55;;
35506;SDS011;36461;52.018;21.036;2022-09-09T15:46:34;32.53;;;21.10;;
35506;SDS011;36461;52.018;21.036;2022-09-09T15:49:14;30.97;;;20.37;;
35506;SDS011;36461;52.018;21.036;2022-09-09T15:51:45;31.75;;;20.37;;
35506;SDS011;36461;52.018;21.036;2022-09-09T15:54:14;32.58;;;20.23;;
35506;SDS011;36461;52.018;21.036;2022-09-09T15:56:46;31.68;;;21.45;;
35506;SDS011;36461;52.018;21.036;2022-09-09T15:59:17;31.62;;;20.17;;
35506;SDS011;36461;52.018;21.036;2022-09-09T16:01:45;33.40;;;22.02;;
35506;SDS011;36461;52.018;21.036;2022-09-09T16:04:12;33.58;;;20.88;;
35506;SDS011;36461;52.018;21.036;2022-09-09T16:06:39;31.10;;;20.85;;
35506;SDS011;36461;52.018;21.036;2022-09-09T16:11:34;31.80;;;19.57;;
35506;SDS011;36461;52.018;21.036;2022-09-09T16:14:04;31.85;;;19.62;;
35506;SDS011;36461;52.018;21.036;2022-09-09T16:16:32;34.55;;;20.60;;
35506;SDS011;36461;52.018;21.036;2022-09-09T16:19:03;32.00;;;19.98;;
35506;SDS011;36461;52.018;21.036;2022-09-09T16:21:34;30.52;;;19.98;;
35506;SDS011;36461;52.018;21.036;2022-09-09T16:24:05;31.57;;;19.92;;
35506;SDS011;36461;52.018;21.036;2022-09-09T16:26:34;30.15;;;20.43;;
35506;SDS011;36461;52.018;21.036;2022-09-09T16:29:03;29.95;;;20.32;;
35506;SDS011;36461;52.018;21.036;2022-09-09T16:31:30;33.02;;;20.52;;
35506;SDS011;36461;52.018;21.036;2022-09-09T16:33:57;30.15;;;20.32;;
35506;SDS011;36461;52.018;21.036;2022-09-09T16:36:27;30.40;;;21.25;;
35506;SDS011;36461;52.018;21.036;2022-09-09T16:38:58;29.42;;;19.60;;
35506;SDS011;36461;52.018;21.036;2022-09-09T16:41:29;31.00;;;19.90;;
35506;SDS011;36461;52.018;21.036;2022-09-09T16:43:57;30.88;;;19.82;;
35506;SDS011;36461;52.018;21.036;2022-09-09T16:46:28;33.98;;;20.60;;
35506;SDS011;36461;52.018;21.036;2022-09-09T16:48:57;29.98;;;19.57;;
35506;SDS011;36461;52.018;21.036;2022-09-09T16:51:29;28.70;;;20.17;;
35506;SDS011;36461;52.018;21.036;2022-09-09T16:53:59;30.25;;;18.40;;
35506;SDS011;36461;52.018;21.036;2022-09-09T16:56:30;30.37;;;19.07;;
35506;SDS011;36461;52.018;21.036;2022-09-09T16:59:00;29.75;;;19.65;;
35506;SDS011;36461;52.018;21.036;2022-09-09T17:01:33;31.12;;;19.00;;
35506;SDS011;36461;52.018;21.036;2022-09-09T17:04:05;30.40;;;19.70;;
35506;SDS011;36461;52.018;21.036;2022-09-09T17:06:41;29.90;;;18.90;;
35506;SDS011;36461;52.018;21.036;2022-09-09T17:09:11;31.45;;;19.90;;
35506;SDS011;36461;52.018;21.036;2022-09-09T17:11:38;26.87;;;18.60;;
35506;SDS011;36461;52.018;21.036;2022-09-09T17:14:06;31.93;;;18.27;;
35506;SDS011;36461;52.018;21.036;2022-09-09T17:16:36;27.02;;;18.17;;